Lucky D — WCW9333 — position and weather

sailwx.info

Track history (hours):
 
Tides and Currents Weather Stations Pressure Air Temp Water Temp Dewpoint Dewpoint Depression Visibility Wind Speed Wind Dir Waves Ship Positions

Lucky D

Owner: Norfolk Tug Co., Norfolk, VA. More information available from US FCC via Universal Licensing System and Coast Guard Vessel Documentation Center.

Last reported at 2018-Feb-20 23:00 UTC. Time now 2018-Feb-20 23:21 UTC.
Position N 36°49' W 076°17'.

; draft 0.4 m.

Type: Tug. MMSI: 528453.

Date/timePositionNaut miles runAvg speedWind from/ knotsBaromVisibWave heightAir tempDewpointWater temp
2018-Feb-20 23:00N 36°49' W 076°17'0 0.0
2018-Feb-20 22:30N 36°49' W 076°17'0 0.0
2018-Feb-20 22:00N 36°49' W 076°17'1 1.1
2018-Feb-20 21:30N 36°48' W 076°17'2 4.7
2018-Feb-20 21:00N 36°46' W 076°18'0 0.3
2018-Feb-20 20:30N 36°46' W 076°18'0 0.0
2018-Feb-20 20:00N 36°46' W 076°18'0 0.0
2018-Feb-20 19:30N 36°46' W 076°18'0 0.0
2018-Feb-20 19:00N 36°46' W 076°18'0 0.0
2018-Feb-20 18:30N 36°46' W 076°18'0 0.0
2018-Feb-20 18:00N 36°46' W 076°18'0 0.0
2018-Feb-20 17:30N 36°46' W 076°18'0 0.0
2018-Feb-20 17:00N 36°46' W 076°18'0 0.1
2018-Feb-20 16:30N 36°46' W 076°18'0 0.1
2018-Feb-20 16:00N 36°46' W 076°18'0 0.0
2018-Feb-20 15:30N 36°46' W 076°18'0 0.0
2018-Feb-20 15:00N 36°46' W 076°18'0 0.0
2018-Feb-20 14:29N 36°46' W 076°18'0 0.0
2018-Feb-20 14:00N 36°46' W 076°18'0 0.0
2018-Feb-20 13:29N 36°46' W 076°18'0 0.0
2018-Feb-20 13:00N 36°46' W 076°18'0 0.0
2018-Feb-20 12:30N 36°46' W 076°18'0 0.0
2018-Feb-20 12:00N 36°46' W 076°18'0 0.0
2018-Feb-20 11:30N 36°46' W 076°18'0 0.0
2018-Feb-20 11:00N 36°46' W 076°18'0 0.0
2018-Feb-20 10:30N 36°46' W 076°18'1 1.1
2018-Feb-20 10:00N 36°47' W 076°18'1 2.3
2018-Feb-20 09:30N 36°48' W 076°18'2 3.6
2018-Feb-20 09:00N 36°50' W 076°18'1 2.0
2018-Feb-20 08:30N 36°50' W 076°17'0 0.0
2018-Feb-20 08:00N 36°50' W 076°17'0 0.0
2018-Feb-20 07:30N 36°50' W 076°17'0 0.0
2018-Feb-20 07:00N 36°50' W 076°17'0 0.0
2018-Feb-20 06:30N 36°50' W 076°17'0 0.0
2018-Feb-20 06:00N 36°50' W 076°17'0 0.0
2018-Feb-20 05:30N 36°50' W 076°17'0 0.0
2018-Feb-20 05:00N 36°50' W 076°17'0 0.0
2018-Feb-20 04:30N 36°50' W 076°17'0 0.0
2018-Feb-20 04:00N 36°50' W 076°17'0 0.0
2018-Feb-20 03:30N 36°50' W 076°17'0 0.0
2018-Feb-20 03:00N 36°50' W 076°17'0 0.0
2018-Feb-20 02:30N 36°50' W 076°17'0 0.0
2018-Feb-20 02:00N 36°50' W 076°17'0 0.0
2018-Feb-20 01:30N 36°50' W 076°17'0 0.0
2018-Feb-20 01:00N 36°50' W 076°17'0 0.0
2018-Feb-20 00:30N 36°50' W 076°17'0 0.0
2018-Feb-20 00:00N 36°50' W 076°17'0 0.0
2018-Feb-19 23:30N 36°50' W 076°17'0 0.0
2018-Feb-19 23:00N 36°50' W 076°17'0 0.0
2018-Feb-19 22:30N 36°50' W 076°17'0 0.0
2018-Feb-19 22:00N 36°50' W 076°17'0 0.0
2018-Feb-19 21:29N 36°50' W 076°17'0 0.0
2018-Feb-19 20:59N 36°50' W 076°17'0 0.0
2018-Feb-19 20:18N 36°50' W 076°17'0 0.0
2018-Feb-19 20:00N 36°50' W 076°17'0 0.0
2018-Feb-19 19:28N 36°50' W 076°17'0 0.0
2018-Feb-19 18:46N 36°50' W 076°17'0 0.1
2018-Feb-19 18:30N 36°50' W 076°17'0 0.1
2018-Feb-19 18:00N 36°50' W 076°17'1 1.9
2018-Feb-19 17:30N 36°51' W 076°18'3 6.7
2018-Feb-19 17:00N 36°54' W 076°20'1 2.0
2018-Feb-19 16:30N 36°55' W 076°20'0 0.0
2018-Feb-19 16:00N 36°55' W 076°20'0 0.0
2018-Feb-19 15:30N 36°55' W 076°20'0 0.0
2018-Feb-19 15:00N 36°55' W 076°20'0 0.0
2018-Feb-19 14:20N 36°55' W 076°20'0 0.0
2018-Feb-19 14:00N 36°55' W 076°20'0 0.0
2018-Feb-19 13:30N 36°55' W 076°20'0 0.0
2018-Feb-19 13:00N 36°55' W 076°20'0 0.0
2018-Feb-19 12:30N 36°55' W 076°20'0 0.0
2018-Feb-19 12:00N 36°55' W 076°20'0 0.0
2018-Feb-19 11:30N 36°55' W 076°20'1 2.3
2018-Feb-19 10:58N 36°56' W 076°20'2 3.0
2018-Feb-19 10:27N 36°57' W 076°21'1 2.1
2018-Feb-19 09:57N 36°57' W 076°22'2 3.5
2018-Feb-19 09:25N 36°57' W 076°24'2 4.0
2018-Feb-19 08:52N 36°59' W 076°27'4 0.1
2018-Feb-18 00:37N 37°01' W 076°30'1 7.0
2018-Feb-18 00:27N 37°01' W 076°29'3 6.5
2018-Feb-17 23:59N 36°58' W 076°26'3 5.7
2018-Feb-17 23:27N 36°57' W 076°23'2 5.2
2018-Feb-17 22:59N 36°56' W 076°20'3 6.1
2018-Feb-17 22:30N 36°53' W 076°20'1 1.6
2018-Feb-17 21:59N 36°53' W 076°21'0 0.0
2018-Feb-17 21:30N 36°53' W 076°21'0 0.0
2018-Feb-17 21:00N 36°53' W 076°21'0 0.0
2018-Feb-17 20:30N 36°53' W 076°21'0 0.0
2018-Feb-17 20:00N 36°53' W 076°21'0 0.0
2018-Feb-17 19:30N 36°53' W 076°21'0 0.0
2018-Feb-17 19:00N 36°53' W 076°21'0 0.0
2018-Feb-17 18:30N 36°53' W 076°21'0 0.0
2018-Feb-17 17:57N 36°53' W 076°21'0 0.0
2018-Feb-17 17:28N 36°53' W 076°21'0 0.0
2018-Feb-17 16:51N 36°53' W 076°21'0 0.0
2018-Feb-17 16:30N 36°53' W 076°21'0 0.0
2018-Feb-17 15:59N 36°53' W 076°21'0 0.0
2018-Feb-17 15:30N 36°53' W 076°21'0 0.0
2018-Feb-17 14:59N 36°53' W 076°21'0 0.0
2018-Feb-17 14:30N 36°53' W 076°21'0 0.0
2018-Feb-17 13:04N 36°53' W 076°21'0 0.1
2018-Feb-17 12:59N 36°53' W 076°21'0 0.0
2018-Feb-17 11:15N 36°53' W 076°21'0 0.0
2018-Feb-17 11:00N 36°53' W 076°21'4 3.8
2018-Feb-17 09:56N 36°57' W 076°20'2 5.0
2018-Feb-17 09:30N 36°57' W 076°23'9 0.2
2018-Feb-15 20:05N 37°02' W 076°32'1 5.3
2018-Feb-15 19:55N 37°02' W 076°31'2 5.4
2018-Feb-15 19:30N 37°00' W 076°29'3 5.0
2018-Feb-15 18:57N 36°58' W 076°26'2 4.5
2018-Feb-15 18:26N 36°57' W 076°24'3 5.2
2018-Feb-15 17:56N 36°57' W 076°21'3 7.3
2018-Feb-15 17:30N 36°54' W 076°20'1 2.5
2018-Feb-15 16:59N 36°53' W 076°21'0 0.0
2018-Feb-15 16:30N 36°53' W 076°21'0 0.0
2018-Feb-15 16:00N 36°53' W 076°21'0 0.1
2018-Feb-15 15:30N 36°53' W 076°21'0 0.0
2018-Feb-15 15:00N 36°53' W 076°21'0 0.0
2018-Feb-15 14:30N 36°53' W 076°21'0 0.0
2018-Feb-15 13:58N 36°53' W 076°21'0 0.0
2018-Feb-15 13:25N 36°53' W 076°21'0 0.0
2018-Feb-15 12:58N 36°53' W 076°21'0 0.0
2018-Feb-15 12:28N 36°53' W 076°21'0 0.0
2018-Feb-15 11:58N 36°53' W 076°21'0 0.0
2018-Feb-15 11:28N 36°53' W 076°21'0 0.0
2018-Feb-15 10:58N 36°53' W 076°21'0 0.1
2018-Feb-15 10:29N 36°53' W 076°21'2 4.2
2018-Feb-15 09:59N 36°52' W 076°19'2 4.3
2018-Feb-15 09:30N 36°50' W 076°17'1 1.0
2018-Feb-15 09:00N 36°50' W 076°16'0 0.1
2018-Feb-15 08:29N 36°50' W 076°16'0 0.0
2018-Feb-15 07:59N 36°50' W 076°16'0 0.0
2018-Feb-15 07:26N 36°50' W 076°16'0 0.0
2018-Feb-15 06:59N 36°50' W 076°16'0 0.0
2018-Feb-15 06:29N 36°50' W 076°16'0 0.0
2018-Feb-15 05:59N 36°50' W 076°16'0 0.0
2018-Feb-15 05:29N 36°50' W 076°16'0 0.0
2018-Feb-15 04:59N 36°50' W 076°16'0 0.0
2018-Feb-15 04:26N 36°50' W 076°16'0 0.0
2018-Feb-15 03:59N 36°50' W 076°16'0 0.0
2018-Feb-15 03:29N 36°50' W 076°16'0 0.0
2018-Feb-15 02:59N 36°50' W 076°16'0 0.0
2018-Feb-15 02:29N 36°50' W 076°16'0 0.0
2018-Feb-15 01:59N 36°50' W 076°16'0 0.0
2018-Feb-15 01:26N 36°50' W 076°16'0 0.0
2018-Feb-15 00:59N 36°50' W 076°16'0 0.0
2018-Feb-15 00:29N 36°50' W 076°16'0 0.0
2018-Feb-14 23:59N 36°50' W 076°16'0 0.0
2018-Feb-14 23:29N 36°50' W 076°16'0 0.0
2018-Feb-14 22:59N 36°50' W 076°16'0 0.0
2018-Feb-14 22:29N 36°50' W 076°16'0 0.0
2018-Feb-14 21:59N 36°50' W 076°16'0 0.0
2018-Feb-14 21:29N 36°50' W 076°16'0 0.0
2018-Feb-14 20:56N 36°50' W 076°16'0 0.0
2018-Feb-14 20:29N 36°50' W 076°16'0 0.0
2018-Feb-14 19:53N 36°50' W 076°16'0 0.0
2018-Feb-14 18:14N 36°50' W 076°16'0 0.0
2018-Feb-14 17:56N 36°50' W 076°16'0 0.0
2018-Feb-14 17:14N 36°50' W 076°16'0 0.0
2018-Feb-14 16:59N 36°50' W 076°16'0 0.0
2018-Feb-14 11:50N 36°50' W 076°16'0 0.0
2018-Feb-14 11:26N 36°50' W 076°16'0 0.0
2018-Feb-14 10:56N 36°50' W 076°16'0 0.0
2018-Feb-14 10:14N 36°50' W 076°16'0 0.0
2018-Feb-14 09:50N 36°50' W 076°16'0 0.0
2018-Feb-14 09:26N 36°50' W 076°16'0 0.0
2018-Feb-14 08:56N 36°50' W 076°16'0 0.0
2018-Feb-14 08:26N 36°50' W 076°16'0 0.0
2018-Feb-14 07:56N 36°50' W 076°16'0 0.0
2018-Feb-14 07:26N 36°50' W 076°16'0 0.0
2018-Feb-14 06:56N 36°50' W 076°16'0 0.0
2018-Feb-14 06:26N 36°50' W 076°16'0 0.0
2018-Feb-14 05:56N 36°50' W 076°16'0 0.0
2018-Feb-14 05:20N 36°50' W 076°16'0 0.0
2018-Feb-14 04:50N 36°50' W 076°16'0 0.0
2018-Feb-14 04:24N 36°50' W 076°16'0 0.0
2018-Feb-14 04:00N 36°50' W 076°16'0 0.0
2018-Feb-14 03:30N 36°50' W 076°16'0 0.0
2018-Feb-14 03:00N 36°50' W 076°16'0 0.0
2018-Feb-14 02:30N 36°50' W 076°16'0 0.0
2018-Feb-14 02:00N 36°50' W 076°16'0 0.0
2018-Feb-14 01:30N 36°50' W 076°16'0 0.0
2018-Feb-14 00:54N 36°50' W 076°16'0 0.0
2018-Feb-14 00:24N 36°50' W 076°16'0 0.0
2018-Feb-14 00:00N 36°50' W 076°16'0 0.0
2018-Feb-13 23:30N 36°50' W 076°16'0 0.0
2018-Feb-13 23:00N 36°50' W 076°16'0 0.0
2018-Feb-13 22:30N 36°50' W 076°16'0 0.0
2018-Feb-13 22:00N 36°50' W 076°16'0 0.0
2018-Feb-13 21:30N 36°50' W 076°16'0 0.0
2018-Feb-13 20:51N 36°50' W 076°16'0 0.3
2018-Feb-13 20:30N 36°50' W 076°16'0 0.2
2018-Feb-13 19:59N 36°50' W 076°16'0 0.0
2018-Feb-13 19:29N 36°50' W 076°16'0 0.0
2018-Feb-13 18:59N 36°50' W 076°16'0 0.0
2018-Feb-13 18:30N 36°50' W 076°16'0 0.1
2018-Feb-13 18:00N 36°50' W 076°16'0 0.0
2018-Feb-13 15:46N 36°50' W 076°16'0 0.0
2018-Feb-13 15:30N 36°50' W 076°16'0 0.2
2018-Feb-13 14:59N 36°50' W 076°16'0 0.0
2018-Feb-13 14:29N 36°50' W 076°16'0 0.0
2018-Feb-13 13:59N 36°50' W 076°16'0 0.0
2018-Feb-13 13:29N 36°50' W 076°16'0 0.0
2018-Feb-13 12:56N 36°50' W 076°16'0 0.0
2018-Feb-13 12:29N 36°50' W 076°16'0 0.0
2018-Feb-13 11:59N 36°50' W 076°16'0 0.0
2018-Feb-13 11:26N 36°50' W 076°16'0 0.0
2018-Feb-13 10:59N 36°50' W 076°16'0 0.0
2018-Feb-13 10:26N 36°50' W 076°16'0 0.0
2018-Feb-13 09:59N 36°50' W 076°16'0 0.0
2018-Feb-13 09:29N 36°50' W 076°16'0 0.0
2018-Feb-13 08:59N 36°50' W 076°16'0 0.0
2018-Feb-13 08:26N 36°50' W 076°16'0 0.0
2018-Feb-13 07:59N 36°50' W 076°16'0 0.0
2018-Feb-13 07:29N 36°50' W 076°16'0 0.0
2018-Feb-13 05:47N 36°50' W 076°16'0 0.0
2018-Feb-13 04:32N 36°50' W 076°16'0 0.0
2018-Feb-13 04:11N 36°50' W 076°16'0 0.0
2018-Feb-13 03:47N 36°50' W 076°16'0 0.0
2018-Feb-13 03:14N 36°50' W 076°16'0 0.1
2018-Feb-13 02:56N 36°50' W 076°16'0 0.0
2018-Feb-13 02:26N 36°50' W 076°16'0 0.0
2018-Feb-13 01:11N 36°50' W 076°16'0 0.0
2018-Feb-13 00:23N 36°50' W 076°16'0 0.0
2018-Feb-12 22:53N 36°50' W 076°16'0 0.0
2018-Feb-12 22:23N 36°50' W 076°16'0 0.0
2018-Feb-12 21:47N 36°50' W 076°16'0 0.0
2018-Feb-12 21:29N 36°50' W 076°16'0 0.0
2018-Feb-12 20:59N 36°50' W 076°16'0 0.0
2018-Feb-12 20:05N 36°50' W 076°16'0 0.1
2018-Feb-12 19:59N 36°50' W 076°16'0 0.0
2018-Feb-12 19:29N 36°50' W 076°16'0 0.0
2018-Feb-12 18:32N 36°50' W 076°16'0 0.0
2018-Feb-12 18:29N 36°50' W 076°16'0 0.0
2018-Feb-12 17:53N 36°50' W 076°16'0 0.0
2018-Feb-12 17:26N 36°50' W 076°16'0 0.0
2018-Feb-12 16:41N 36°50' W 076°16'0 0.0
2018-Feb-12 16:29N 36°50' W 076°16'0 0.0
2018-Feb-12 13:50N 36°50' W 076°16'0 0.0
2018-Feb-12 13:29N 36°50' W 076°16'0 0.0
2018-Feb-12 12:59N 36°50' W 076°16'0 0.0
2018-Feb-12 12:23N 36°50' W 076°16'0 0.0
2018-Feb-12 11:59N 36°50' W 076°16'0 0.0
2018-Feb-12 11:29N 36°50' W 076°16'0 0.0
2018-Feb-12 10:59N 36°50' W 076°16'0 0.0
2018-Feb-12 10:29N 36°50' W 076°16'0 0.0
2018-Feb-12 09:59N 36°50' W 076°16'0 0.0
2018-Feb-12 09:29N 36°50' W 076°16'0 0.0
2018-Feb-12 08:59N 36°50' W 076°16'0 0.0
2018-Feb-12 08:29N 36°50' W 076°16'0 0.0
2018-Feb-12 07:59N 36°50' W 076°16'0 0.0
2018-Feb-12 07:29N 36°50' W 076°16'0 0.0
2018-Feb-12 06:59N 36°50' W 076°16'0 0.0
2018-Feb-12 06:29N 36°50' W 076°16'0 0.0
2018-Feb-12 05:59N 36°50' W 076°16'0 0.0
2018-Feb-12 05:26N 36°50' W 076°16'0 0.0
2018-Feb-12 04:59N 36°50' W 076°16'0 0.0
2018-Feb-12 04:29N 36°50' W 076°16'0 0.0
2018-Feb-12 03:59N 36°50' W 076°16'0 0.0
2018-Feb-12 03:29N 36°50' W 076°16'0 0.0
2018-Feb-12 02:59N 36°50' W 076°16'0 0.0
2018-Feb-12 02:29N 36°50' W 076°16'0 0.0
2018-Feb-12 01:59N 36°50' W 076°16'0 0.0
2018-Feb-12 01:29N 36°50' W 076°16'0 0.0
2018-Feb-12 00:53N 36°50' W 076°16'0 0.0
2018-Feb-12 00:29N 36°50' W 076°16'0 0.0
2018-Feb-11 23:53N 36°50' W 076°16'0 0.0
2018-Feb-11 23:29N 36°50' W 076°16'0 0.0
2018-Feb-11 22:59N 36°50' W 076°16'0 0.0
2018-Feb-11 22:29N 36°50' W 076°16'0 0.0
2018-Feb-11 21:59N 36°50' W 076°16'0 0.0
2018-Feb-11 21:29N 36°50' W 076°16'0 0.0
2018-Feb-11 20:59N 36°50' W 076°16'0 0.0
2018-Feb-11 20:29N 36°50' W 076°16'0 0.0
2018-Feb-11 19:59N 36°50' W 076°16'0 0.0
2018-Feb-11 19:29N 36°50' W 076°16'0 0.0
2018-Feb-11 18:59N 36°50' W 076°16'0 0.0
2018-Feb-11 18:26N 36°50' W 076°16'0 0.0
2018-Feb-11 17:59N 36°50' W 076°16'0 0.0
2018-Feb-11 17:30N 36°50' W 076°16'0 0.2
2018-Feb-11 16:55N 36°50' W 076°16'0 0.0
2018-Feb-11 16:30N 36°50' W 076°16'0 0.2
2018-Feb-11 15:59N 36°50' W 076°16'0 0.4
2018-Feb-11 15:26N 36°50' W 076°16'0 0.6
2018-Feb-11 15:00N 36°50' W 076°16'0 0.0
2018-Feb-11 14:30N 36°50' W 076°16'0 0.5
2018-Feb-11 14:00N 36°50' W 076°16'0 0.3
2018-Feb-11 13:28N 36°50' W 076°16'0 0.0
2018-Feb-11 12:59N 36°50' W 076°16'0 0.2
2018-Feb-11 12:28N 36°50' W 076°16'0 0.0
2018-Feb-11 11:55N 36°50' W 076°16'0 0.0
2018-Feb-11 11:30N 36°50' W 076°16'0 0.0
2018-Feb-11 11:00N 36°50' W 076°16'0 0.0
2018-Feb-11 10:30N 36°50' W 076°16'0 0.0
2018-Feb-11 10:00N 36°50' W 076°16'0 0.0
2018-Feb-11 09:30N 36°50' W 076°16'0 0.0
2018-Feb-11 09:00N 36°50' W 076°16'0 0.0
2018-Feb-11 08:27N 36°50' W 076°16'0 0.0
2018-Feb-11 08:00N 36°50' W 076°16'0 0.0
2018-Feb-11 07:30N 36°50' W 076°16'0 0.0
2018-Feb-11 06:36N 36°50' W 076°16'0 0.0
2018-Feb-11 06:30N 36°50' W 076°16'0 0.0
2018-Feb-11 06:00N 36°50' W 076°16'0 0.0
2018-Feb-11 04:30N 36°50' W 076°16'0 0.0
2018-Feb-11 03:54N 36°50' W 076°16'0 0.0
2018-Feb-11 03:06N 36°50' W 076°16'0 0.1
2018-Feb-11 02:59N 36°50' W 076°16'0 0.0
2018-Feb-11 02:29N 36°50' W 076°16'0 0.0
2018-Feb-11 02:00N 36°50' W 076°16'0 0.0
2018-Feb-11 01:30N 36°50' W 076°16'0 0.0
2018-Feb-11 01:00N 36°50' W 076°16'0 0.0
2018-Feb-11 00:30N 36°50' W 076°16'0 1.0
2018-Feb-10 23:59N 36°50' W 076°16'0 0.5
2018-Feb-10 23:30N 36°50' W 076°16'  
Track history (hours):
 
Tides and Currents Weather Stations Pressure Air Temp Water Temp Dewpoint Dewpoint Depression Visibility Wind Speed Wind Dir Waves Ship Positions

Lucky D

Owner: Norfolk Tug Co., Norfolk, VA. More information available from US FCC via Universal Licensing System and Coast Guard Vessel Documentation Center.

Last reported at 2018-Feb-20 23:00 UTC. Time now 2018-Feb-20 23:21 UTC.
Position N 36°49' W 076°17'.

; draft 0.4 m.

Type: Tug. MMSI: 528453.

Date/timePositionNaut miles runAvg speedWind from/ knotsBaromVisibWave heightAir tempDewpointWater temp
2018-Feb-20 23:00N 36°49' W 076°17'0 0.0
2018-Feb-20 22:30N 36°49' W 076°17'0 0.0
2018-Feb-20 22:00N 36°49' W 076°17'1 1.1
2018-Feb-20 21:30N 36°48' W 076°17'2 4.7
2018-Feb-20 21:00N 36°46' W 076°18'0 0.3
2018-Feb-20 20:30N 36°46' W 076°18'0 0.0
2018-Feb-20 20:00N 36°46' W 076°18'0 0.0
2018-Feb-20 19:30N 36°46' W 076°18'0 0.0
2018-Feb-20 19:00N 36°46' W 076°18'0 0.0
2018-Feb-20 18:30N 36°46' W 076°18'0 0.0
2018-Feb-20 18:00N 36°46' W 076°18'0 0.0
2018-Feb-20 17:30N 36°46' W 076°18'0 0.0
2018-Feb-20 17:00N 36°46' W 076°18'0 0.1
2018-Feb-20 16:30N 36°46' W 076°18'0 0.1
2018-Feb-20 16:00N 36°46' W 076°18'0 0.0
2018-Feb-20 15:30N 36°46' W 076°18'0 0.0
2018-Feb-20 15:00N 36°46' W 076°18'0 0.0
2018-Feb-20 14:29N 36°46' W 076°18'0 0.0
2018-Feb-20 14:00N 36°46' W 076°18'0 0.0
2018-Feb-20 13:29N 36°46' W 076°18'0 0.0
2018-Feb-20 13:00N 36°46' W 076°18'0 0.0
2018-Feb-20 12:30N 36°46' W 076°18'0 0.0
2018-Feb-20 12:00N 36°46' W 076°18'0 0.0
2018-Feb-20 11:30N 36°46' W 076°18'0 0.0
2018-Feb-20 11:00N 36°46' W 076°18'0 0.0
2018-Feb-20 10:30N 36°46' W 076°18'1 1.1
2018-Feb-20 10:00N 36°47' W 076°18'1 2.3
2018-Feb-20 09:30N 36°48' W 076°18'2 3.6
2018-Feb-20 09:00N 36°50' W 076°18'1 2.0
2018-Feb-20 08:30N 36°50' W 076°17'0 0.0
2018-Feb-20 08:00N 36°50' W 076°17'0 0.0
2018-Feb-20 07:30N 36°50' W 076°17'0 0.0
2018-Feb-20 07:00N 36°50' W 076°17'0 0.0
2018-Feb-20 06:30N 36°50' W 076°17'0 0.0
2018-Feb-20 06:00N 36°50' W 076°17'0 0.0
2018-Feb-20 05:30N 36°50' W 076°17'0 0.0
2018-Feb-20 05:00N 36°50' W 076°17'0 0.0
2018-Feb-20 04:30N 36°50' W 076°17'0 0.0
2018-Feb-20 04:00N 36°50' W 076°17'0 0.0
2018-Feb-20 03:30N 36°50' W 076°17'0 0.0
2018-Feb-20 03:00N 36°50' W 076°17'0 0.0
2018-Feb-20 02:30N 36°50' W 076°17'0 0.0
2018-Feb-20 02:00N 36°50' W 076°17'0 0.0
2018-Feb-20 01:30N 36°50' W 076°17'0 0.0
2018-Feb-20 01:00N 36°50' W 076°17'0 0.0
2018-Feb-20 00:30N 36°50' W 076°17'0 0.0
2018-Feb-20 00:00N 36°50' W 076°17'0 0.0
2018-Feb-19 23:30N 36°50' W 076°17'0 0.0
2018-Feb-19 23:00N 36°50' W 076°17'0 0.0
2018-Feb-19 22:30N 36°50' W 076°17'0 0.0
2018-Feb-19 22:00N 36°50' W 076°17'0 0.0
2018-Feb-19 21:29N 36°50' W 076°17'0 0.0
2018-Feb-19 20:59N 36°50' W 076°17'0 0.0
2018-Feb-19 20:18N 36°50' W 076°17'0 0.0
2018-Feb-19 20:00N 36°50' W 076°17'0 0.0
2018-Feb-19 19:28N 36°50' W 076°17'0 0.0
2018-Feb-19 18:46N 36°50' W 076°17'0 0.1
2018-Feb-19 18:30N 36°50' W 076°17'0 0.1
2018-Feb-19 18:00N 36°50' W 076°17'1 1.9
2018-Feb-19 17:30N 36°51' W 076°18'3 6.7
2018-Feb-19 17:00N 36°54' W 076°20'1 2.0
2018-Feb-19 16:30N 36°55' W 076°20'0 0.0
2018-Feb-19 16:00N 36°55' W 076°20'0 0.0
2018-Feb-19 15:30N 36°55' W 076°20'0 0.0
2018-Feb-19 15:00N 36°55' W 076°20'0 0.0
2018-Feb-19 14:20N 36°55' W 076°20'0 0.0
2018-Feb-19 14:00N 36°55' W 076°20'0 0.0
2018-Feb-19 13:30N 36°55' W 076°20'0 0.0
2018-Feb-19 13:00N 36°55' W 076°20'0 0.0
2018-Feb-19 12:30N 36°55' W 076°20'0 0.0
2018-Feb-19 12:00N 36°55' W 076°20'0 0.0
2018-Feb-19 11:30N 36°55' W 076°20'1 2.3
2018-Feb-19 10:58N 36°56' W 076°20'2 3.0
2018-Feb-19 10:27N 36°57' W 076°21'1 2.1
2018-Feb-19 09:57N 36°57' W 076°22'2 3.5
2018-Feb-19 09:25N 36°57' W 076°24'2 4.0
2018-Feb-19 08:52N 36°59' W 076°27'4 0.1
2018-Feb-18 00:37N 37°01' W 076°30'1 7.0
2018-Feb-18 00:27N 37°01' W 076°29'3 6.5
2018-Feb-17 23:59N 36°58' W 076°26'3 5.7
2018-Feb-17 23:27N 36°57' W 076°23'2 5.2
2018-Feb-17 22:59N 36°56' W 076°20'3 6.1
2018-Feb-17 22:30N 36°53' W 076°20'1 1.6
2018-Feb-17 21:59N 36°53' W 076°21'0 0.0
2018-Feb-17 21:30N 36°53' W 076°21'0 0.0
2018-Feb-17 21:00N 36°53' W 076°21'0 0.0
2018-Feb-17 20:30N 36°53' W 076°21'0 0.0
2018-Feb-17 20:00N 36°53' W 076°21'0 0.0
2018-Feb-17 19:30N 36°53' W 076°21'0 0.0
2018-Feb-17 19:00N 36°53' W 076°21'0 0.0
2018-Feb-17 18:30N 36°53' W 076°21'0 0.0
2018-Feb-17 17:57N 36°53' W 076°21'0 0.0
2018-Feb-17 17:28N 36°53' W 076°21'0 0.0
2018-Feb-17 16:51N 36°53' W 076°21'0 0.0
2018-Feb-17 16:30N 36°53' W 076°21'0 0.0
2018-Feb-17 15:59N 36°53' W 076°21'0 0.0
2018-Feb-17 15:30N 36°53' W 076°21'0 0.0
2018-Feb-17 14:59N 36°53' W 076°21'0 0.0
2018-Feb-17 14:30N 36°53' W 076°21'0 0.0
2018-Feb-17 13:04N 36°53' W 076°21'0 0.1
2018-Feb-17 12:59N 36°53' W 076°21'0 0.0
2018-Feb-17 11:15N 36°53' W 076°21'0 0.0
2018-Feb-17 11:00N 36°53' W 076°21'4 3.8
2018-Feb-17 09:56N 36°57' W 076°20'2 5.0
2018-Feb-17 09:30N 36°57' W 076°23'9 0.2
2018-Feb-15 20:05N 37°02' W 076°32'1 5.3
2018-Feb-15 19:55N 37°02' W 076°31'2 5.4
2018-Feb-15 19:30N 37°00' W 076°29'3 5.0
2018-Feb-15 18:57N 36°58' W 076°26'2 4.5
2018-Feb-15 18:26N 36°57' W 076°24'3 5.2
2018-Feb-15 17:56N 36°57' W 076°21'3 7.3
2018-Feb-15 17:30N 36°54' W 076°20'1 2.5
2018-Feb-15 16:59N 36°53' W 076°21'0 0.0
2018-Feb-15 16:30N 36°53' W 076°21'0 0.0
2018-Feb-15 16:00N 36°53' W 076°21'0 0.1
2018-Feb-15 15:30N 36°53' W 076°21'0 0.0
2018-Feb-15 15:00N 36°53' W 076°21'0 0.0
2018-Feb-15 14:30N 36°53' W 076°21'0 0.0
2018-Feb-15 13:58N 36°53' W 076°21'0 0.0
2018-Feb-15 13:25N 36°53' W 076°21'0 0.0
2018-Feb-15 12:58N 36°53' W 076°21'0 0.0
2018-Feb-15 12:28N 36°53' W 076°21'0 0.0
2018-Feb-15 11:58N 36°53' W 076°21'0 0.0
2018-Feb-15 11:28N 36°53' W 076°21'0 0.0
2018-Feb-15 10:58N 36°53' W 076°21'0 0.1
2018-Feb-15 10:29N 36°53' W 076°21'2 4.2
2018-Feb-15 09:59N 36°52' W 076°19'2 4.3
2018-Feb-15 09:30N 36°50' W 076°17'1 1.0
2018-Feb-15 09:00N 36°50' W 076°16'0 0.1
2018-Feb-15 08:29N 36°50' W 076°16'0 0.0
2018-Feb-15 07:59N 36°50' W 076°16'0 0.0
2018-Feb-15 07:26N 36°50' W 076°16'0 0.0
2018-Feb-15 06:59N 36°50' W 076°16'0 0.0
2018-Feb-15 06:29N 36°50' W 076°16'0 0.0
2018-Feb-15 05:59N 36°50' W 076°16'0 0.0
2018-Feb-15 05:29N 36°50' W 076°16'0 0.0
2018-Feb-15 04:59N 36°50' W 076°16'0 0.0
2018-Feb-15 04:26N 36°50' W 076°16'0 0.0
2018-Feb-15 03:59N 36°50' W 076°16'0 0.0
2018-Feb-15 03:29N 36°50' W 076°16'0 0.0
2018-Feb-15 02:59N 36°50' W 076°16'0 0.0
2018-Feb-15 02:29N 36°50' W 076°16'0 0.0
2018-Feb-15 01:59N 36°50' W 076°16'0 0.0
2018-Feb-15 01:26N 36°50' W 076°16'0 0.0
2018-Feb-15 00:59N 36°50' W 076°16'0 0.0
2018-Feb-15 00:29N 36°50' W 076°16'0 0.0
2018-Feb-14 23:59N 36°50' W 076°16'0 0.0
2018-Feb-14 23:29N 36°50' W 076°16'0 0.0
2018-Feb-14 22:59N 36°50' W 076°16'0 0.0
2018-Feb-14 22:29N 36°50' W 076°16'0 0.0
2018-Feb-14 21:59N 36°50' W 076°16'0 0.0
2018-Feb-14 21:29N 36°50' W 076°16'0 0.0
2018-Feb-14 20:56N 36°50' W 076°16'0 0.0
2018-Feb-14 20:29N 36°50' W 076°16'0 0.0
2018-Feb-14 19:53N 36°50' W 076°16'0 0.0
2018-Feb-14 18:14N 36°50' W 076°16'0 0.0
2018-Feb-14 17:56N 36°50' W 076°16'0 0.0
2018-Feb-14 17:14N 36°50' W 076°16'0 0.0
2018-Feb-14 16:59N 36°50' W 076°16'0 0.0
2018-Feb-14 11:50N 36°50' W 076°16'0 0.0
2018-Feb-14 11:26N 36°50' W 076°16'0 0.0
2018-Feb-14 10:56N 36°50' W 076°16'0 0.0
2018-Feb-14 10:14N 36°50' W 076°16'0 0.0
2018-Feb-14 09:50N 36°50' W 076°16'0 0.0
2018-Feb-14 09:26N 36°50' W 076°16'0 0.0
2018-Feb-14 08:56N 36°50' W 076°16'0 0.0
2018-Feb-14 08:26N 36°50' W 076°16'0 0.0
2018-Feb-14 07:56N 36°50' W 076°16'0 0.0
2018-Feb-14 07:26N 36°50' W 076°16'0 0.0
2018-Feb-14 06:56N 36°50' W 076°16'0 0.0
2018-Feb-14 06:26N 36°50' W 076°16'0 0.0
2018-Feb-14 05:56N 36°50' W 076°16'0 0.0
2018-Feb-14 05:20N 36°50' W 076°16'0 0.0
2018-Feb-14 04:50N 36°50' W 076°16'0 0.0
2018-Feb-14 04:24N 36°50' W 076°16'0 0.0
2018-Feb-14 04:00N 36°50' W 076°16'0 0.0
2018-Feb-14 03:30N 36°50' W 076°16'0 0.0
2018-Feb-14 03:00N 36°50' W 076°16'0 0.0
2018-Feb-14 02:30N 36°50' W 076°16'0 0.0
2018-Feb-14 02:00N 36°50' W 076°16'0 0.0
2018-Feb-14 01:30N 36°50' W 076°16'0 0.0
2018-Feb-14 00:54N 36°50' W 076°16'0 0.0
2018-Feb-14 00:24N 36°50' W 076°16'0 0.0
2018-Feb-14 00:00N 36°50' W 076°16'0 0.0
2018-Feb-13 23:30N 36°50' W 076°16'0 0.0
2018-Feb-13 23:00N 36°50' W 076°16'0 0.0
2018-Feb-13 22:30N 36°50' W 076°16'0 0.0
2018-Feb-13 22:00N 36°50' W 076°16'0 0.0
2018-Feb-13 21:30N 36°50' W 076°16'0 0.0
2018-Feb-13 20:51N 36°50' W 076°16'0 0.3
2018-Feb-13 20:30N 36°50' W 076°16'0 0.2
2018-Feb-13 19:59N 36°50' W 076°16'0 0.0
2018-Feb-13 19:29N 36°50' W 076°16'0 0.0
2018-Feb-13 18:59N 36°50' W 076°16'0 0.0
2018-Feb-13 18:30N 36°50' W 076°16'0 0.1
2018-Feb-13 18:00N 36°50' W 076°16'0 0.0
2018-Feb-13 15:46N 36°50' W 076°16'0 0.0
2018-Feb-13 15:30N 36°50' W 076°16'0 0.2
2018-Feb-13 14:59N 36°50' W 076°16'0 0.0
2018-Feb-13 14:29N 36°50' W 076°16'0 0.0
2018-Feb-13 13:59N 36°50' W 076°16'0 0.0
2018-Feb-13 13:29N 36°50' W 076°16'0 0.0
2018-Feb-13 12:56N 36°50' W 076°16'0 0.0
2018-Feb-13 12:29N 36°50' W 076°16'0 0.0
2018-Feb-13 11:59N 36°50' W 076°16'0 0.0
2018-Feb-13 11:26N 36°50' W 076°16'0 0.0
2018-Feb-13 10:59N 36°50' W 076°16'0 0.0
2018-Feb-13 10:26N 36°50' W 076°16'0 0.0
2018-Feb-13 09:59N 36°50' W 076°16'0 0.0
2018-Feb-13 09:29N 36°50' W 076°16'0 0.0
2018-Feb-13 08:59N 36°50' W 076°16'0 0.0
2018-Feb-13 08:26N 36°50' W 076°16'0 0.0
2018-Feb-13 07:59N 36°50' W 076°16'0 0.0
2018-Feb-13 07:29N 36°50' W 076°16'0 0.0
2018-Feb-13 05:47N 36°50' W 076°16'0 0.0
2018-Feb-13 04:32N 36°50' W 076°16'0 0.0
2018-Feb-13 04:11N 36°50' W 076°16'0 0.0
2018-Feb-13 03:47N 36°50' W 076°16'0 0.0
2018-Feb-13 03:14N 36°50' W 076°16'0 0.1
2018-Feb-13 02:56N 36°50' W 076°16'0 0.0
2018-Feb-13 02:26N 36°50' W 076°16'0 0.0
2018-Feb-13 01:11N 36°50' W 076°16'0 0.0
2018-Feb-13 00:23N 36°50' W 076°16'0 0.0
2018-Feb-12 22:53N 36°50' W 076°16'0 0.0
2018-Feb-12 22:23N 36°50' W 076°16'0 0.0
2018-Feb-12 21:47N 36°50' W 076°16'0 0.0
2018-Feb-12 21:29N 36°50' W 076°16'0 0.0
2018-Feb-12 20:59N 36°50' W 076°16'0 0.0
2018-Feb-12 20:05N 36°50' W 076°16'0 0.1
2018-Feb-12 19:59N 36°50' W 076°16'0 0.0
2018-Feb-12 19:29N 36°50' W 076°16'0 0.0
2018-Feb-12 18:32N 36°50' W 076°16'0 0.0
2018-Feb-12 18:29N 36°50' W 076°16'0 0.0
2018-Feb-12 17:53N 36°50' W 076°16'0 0.0
2018-Feb-12 17:26N 36°50' W 076°16'0 0.0
2018-Feb-12 16:41N 36°50' W 076°16'0 0.0
2018-Feb-12 16:29N 36°50' W 076°16'0 0.0
2018-Feb-12 13:50N 36°50' W 076°16'0 0.0
2018-Feb-12 13:29N 36°50' W 076°16'0 0.0
2018-Feb-12 12:59N 36°50' W 076°16'0 0.0
2018-Feb-12 12:23N 36°50' W 076°16'0 0.0
2018-Feb-12 11:59N 36°50' W 076°16'0 0.0
2018-Feb-12 11:29N 36°50' W 076°16'0 0.0
2018-Feb-12 10:59N 36°50' W 076°16'0 0.0
2018-Feb-12 10:29N 36°50' W 076°16'0 0.0
2018-Feb-12 09:59N 36°50' W 076°16'0 0.0
2018-Feb-12 09:29N 36°50' W 076°16'0 0.0
2018-Feb-12 08:59N 36°50' W 076°16'0 0.0
2018-Feb-12 08:29N 36°50' W 076°16'0 0.0
2018-Feb-12 07:59N 36°50' W 076°16'0 0.0
2018-Feb-12 07:29N 36°50' W 076°16'0 0.0
2018-Feb-12 06:59N 36°50' W 076°16'0 0.0
2018-Feb-12 06:29N 36°50' W 076°16'0 0.0
2018-Feb-12 05:59N 36°50' W 076°16'0 0.0
2018-Feb-12 05:26N 36°50' W 076°16'0 0.0
2018-Feb-12 04:59N 36°50' W 076°16'0 0.0
2018-Feb-12 04:29N 36°50' W 076°16'0 0.0
2018-Feb-12 03:59N 36°50' W 076°16'0 0.0
2018-Feb-12 03:29N 36°50' W 076°16'0 0.0
2018-Feb-12 02:59N 36°50' W 076°16'0 0.0
2018-Feb-12 02:29N 36°50' W 076°16'0 0.0
2018-Feb-12 01:59N 36°50' W 076°16'0 0.0
2018-Feb-12 01:29N 36°50' W 076°16'0 0.0
2018-Feb-12 00:53N 36°50' W 076°16'0 0.0
2018-Feb-12 00:29N 36°50' W 076°16'0 0.0
2018-Feb-11 23:53N 36°50' W 076°16'0 0.0
2018-Feb-11 23:29N 36°50' W 076°16'0 0.0
2018-Feb-11 22:59N 36°50' W 076°16'0 0.0
2018-Feb-11 22:29N 36°50' W 076°16'0 0.0
2018-Feb-11 21:59N 36°50' W 076°16'0 0.0
2018-Feb-11 21:29N 36°50' W 076°16'0 0.0
2018-Feb-11 20:59N 36°50' W 076°16'0 0.0
2018-Feb-11 20:29N 36°50' W 076°16'0 0.0
2018-Feb-11 19:59N 36°50' W 076°16'0 0.0
2018-Feb-11 19:29N 36°50' W 076°16'0 0.0
2018-Feb-11 18:59N 36°50' W 076°16'0 0.0
2018-Feb-11 18:26N 36°50' W 076°16'0 0.0
2018-Feb-11 17:59N 36°50' W 076°16'0 0.0
2018-Feb-11 17:30N 36°50' W 076°16'0 0.2
2018-Feb-11 16:55N 36°50' W 076°16'0 0.0
2018-Feb-11 16:30N 36°50' W 076°16'0 0.2
2018-Feb-11 15:59N 36°50' W 076°16'0 0.4
2018-Feb-11 15:26N 36°50' W 076°16'0 0.6
2018-Feb-11 15:00N 36°50' W 076°16'0 0.0
2018-Feb-11 14:30N 36°50' W 076°16'0 0.5
2018-Feb-11 14:00N 36°50' W 076°16'0 0.3
2018-Feb-11 13:28N 36°50' W 076°16'0 0.0
2018-Feb-11 12:59N 36°50' W 076°16'0 0.2
2018-Feb-11 12:28N 36°50' W 076°16'0 0.0
2018-Feb-11 11:55N 36°50' W 076°16'0 0.0
2018-Feb-11 11:30N 36°50' W 076°16'0 0.0
2018-Feb-11 11:00N 36°50' W 076°16'0 0.0
2018-Feb-11 10:30N 36°50' W 076°16'0 0.0
2018-Feb-11 10:00N 36°50' W 076°16'0 0.0
2018-Feb-11 09:30N 36°50' W 076°16'0 0.0
2018-Feb-11 09:00N 36°50' W 076°16'0 0.0
2018-Feb-11 08:27N 36°50' W 076°16'0 0.0
2018-Feb-11 08:00N 36°50' W 076°16'0 0.0
2018-Feb-11 07:30N 36°50' W 076°16'0 0.0
2018-Feb-11 06:36N 36°50' W 076°16'0 0.0
2018-Feb-11 06:30N 36°50' W 076°16'0 0.0
2018-Feb-11 06:00N 36°50' W 076°16'0 0.0
2018-Feb-11 04:30N 36°50' W 076°16'0 0.0
2018-Feb-11 03:54N 36°50' W 076°16'0 0.0
2018-Feb-11 03:06N 36°50' W 076°16'0 0.1
2018-Feb-11 02:59N 36°50' W 076°16'0 0.0
2018-Feb-11 02:29N 36°50' W 076°16'0 0.0
2018-Feb-11 02:00N 36°50' W 076°16'0 0.0
2018-Feb-11 01:30N 36°50' W 076°16'0 0.0
2018-Feb-11 01:00N 36°50' W 076°16'0 0.0
2018-Feb-11 00:30N 36°50' W 076°16'0 1.0
2018-Feb-10 23:59N 36°50' W 076°16'0 0.5
2018-Feb-10 23:30N 36°50' W 076°16'  

Dump ship's entire track history